Time;durP1;ratioP1;P1;durP2;ratioP2;P2;SDS_P1;SDS_P2;PMS_P1;PMS_P2;Temp;Humidity;BMP_temperature;BMP_pressure;BME280_temperature;BME280_humidity;BME280_pressure;Samples;Min_cycle;Max_cycle;Signal;HPM_P1;HPM_P2
2022/07/04 00:00:21;;;;;;;6.60;2.28;;;18.20;99.90;;;;;;4966451;28;20073;-77
2022/07/04 00:02:47;;;;;;;6.72;2.28;;;18.10;99.90;;;;;;4984623;28;20027;-75
2022/07/04 00:05:14;;;;;;;4.00;1.98;;;18.10;99.90;;;;;;4972438;28;20034;-77
2022/07/04 00:07:41;;;;;;;5.38;2.10;;;18.10;99.90;;;;;;4964464;28;20035;-77
2022/07/04 00:10:16;;;;;;;5.18;2.22;;;18.00;99.90;;;;;;4965216;28;20031;-75
2022/07/04 00:12:42;;;;;;;4.25;2.55;;;18.00;99.90;;;;;;4998030;28;20042;-76
2022/07/04 00:15:09;;;;;;;8.18;2.42;;;18.00;99.90;;;;;;4979258;28;20266;-76
2022/07/04 00:17:36;;;;;;;8.10;2.65;;;18.00;99.90;;;;;;4976210;28;20035;-77
2022/07/04 00:20:03;;;;;;;5.32;2.33;;;18.00;99.90;;;;;;4991176;28;20034;-77
2022/07/04 00:22:29;;;;;;;5.03;2.53;;;18.00;99.90;;;;;;4972758;28;20038;-77
2022/07/04 00:24:54;;;;;;;9.95;2.88;;;17.90;99.90;;;;;;4958165;28;20054;-77
2022/07/04 00:27:20;;;;;;;8.18;2.53;;;17.90;99.90;;;;;;4976446;28;20038;-77
2022/07/04 00:29:46;;;;;;;5.40;2.20;;;17.90;99.90;;;;;;4971435;28;20045;-77
2022/07/04 00:32:11;;;;;;;11.43;2.60;;;17.90;99.90;;;;;;4975105;28;20030;-76
2022/07/04 00:34:37;;;;;;;7.53;2.80;;;17.80;99.90;;;;;;4973874;28;20053;-77
2022/07/04 00:37:03;;;;;;;5.10;2.72;;;17.80;99.90;;;;;;4975899;28;20150;-76
2022/07/04 00:39:29;;;;;;;7.15;2.63;;;17.70;99.90;;;;;;4978227;28;20071;-78
2022/07/04 00:41:55;;;;;;;6.05;2.22;;;17.80;99.90;;;;;;4977592;28;20109;-76
2022/07/04 00:44:20;;;;;;;8.32;3.08;;;17.70;99.90;;;;;;4961742;28;20423;-78
2022/07/04 00:46:47;;;;;;;8.65;3.47;;;17.70;99.90;;;;;;4991324;28;20054;-77
2022/07/04 00:49:14;;;;;;;5.88;3.35;;;17.60;99.90;;;;;;4989599;28;20041;-77
2022/07/04 00:51:41;;;;;;;5.13;3.53;;;17.70;99.90;;;;;;4999084;28;20030;-78
2022/07/04 00:54:09;;;;;;;7.45;3.10;;;17.60;99.90;;;;;;4981340;28;20022;-77
2022/07/04 00:56:37;;;;;;;6.85;3.70;;;17.60;99.90;;;;;;4966736;28;20027;-78
2022/07/04 00:59:03;;;;;;;7.45;3.33;;;17.60;99.90;;;;;;4999646;28;20026;-78
2022/07/04 01:01:29;;;;;;;6.90;3.80;;;17.50;99.90;;;;;;4977720;28;20038;-78
2022/07/04 01:03:56;;;;;;;9.70;3.92;;;17.50;99.90;;;;;;4979455;28;20033;-78
2022/07/04 01:06:22;;;;;;;16.45;4.45;;;17.50;99.90;;;;;;4979080;28;20088;-78
2022/07/04 01:08:48;;;;;;;6.32;3.58;;;17.50;99.90;;;;;;4978126;28;20031;-78
2022/07/04 01:11:15;;;;;;;6.85;3.92;;;17.40;99.90;;;;;;4996693;28;20045;-79
2022/07/04 01:13:42;;;;;;;6.55;3.60;;;17.30;99.90;;;;;;4994926;28;20031;-78
2022/07/04 01:16:09;;;;;;;8.98;4.18;;;17.40;99.90;;;;;;4976860;28;20102;-78
2022/07/04 01:18:37;;;;;;;9.07;4.35;;;17.40;99.90;;;;;;4980110;28;20022;-77
2022/07/04 01:21:03;;;;;;;6.75;4.47;;;17.40;99.90;;;;;;4994810;28;20046;-78
2022/07/04 01:23:29;;;;;;;8.15;4.28;;;17.40;99.90;;;;;;4984836;28;20115;-77
2022/07/04 01:25:56;;;;;;;8.98;4.95;;;17.30;99.90;;;;;;4965647;28;20459;-78
2022/07/04 01:28:23;;;;;;;8.57;5.18;;;17.30;99.90;;;;;;4976911;28;20037;-78
2022/07/04 01:30:49;;;;;;;8.88;4.90;;;17.30;99.90;;;;;;4966274;28;20518;-78
2022/07/04 01:33:17;;;;;;;9.73;5.03;;;17.20;99.90;;;;;;4983819;28;20061;-78
2022/07/04 01:35:43;;;;;;;7.00;5.57;;;17.20;99.90;;;;;;4985823;28;20038;-77
2022/07/04 01:38:09;;;;;;;11.48;6.25;;;17.30;99.90;;;;;;4998482;28;20073;-78
2022/07/04 01:40:35;;;;;;;7.90;5.15;;;17.20;99.90;;;;;;4984253;28;20501;-79
2022/07/04 01:43:01;;;;;;;11.00;5.90;;;17.20;99.90;;;;;;4985059;28;20105;-78
2022/07/04 01:45:27;;;;;;;12.60;6.45;;;17.10;99.90;;;;;;4998267;28;20045;-77
2022/07/04 01:48:06;;;;;;;12.45;6.10;;;17.20;99.90;;;;;;4980507;28;20034;-78
2022/07/04 01:50:32;;;;;;;10.43;6.28;;;17.20;99.90;;;;;;4982296;28;20629;-78
2022/07/04 01:52:58;;;;;;;8.13;6.88;;;17.10;99.90;;;;;;4978538;28;20073;-78
2022/07/04 01:55:24;;;;;;;13.55;6.72;;;17.10;99.90;;;;;;4981735;28;20034;-78
2022/07/04 01:57:49;;;;;;;17.08;7.15;;;17.10;99.90;;;;;;4981969;28;20031;-78
2022/07/04 02:03:00;;;;;;;12.13;8.07;;;17.00;99.90;;;;;;4981848;28;20486;-78
2022/07/04 02:05:26;;;;;;;10.88;7.47;;;17.00;99.90;;;;;;4978629;28;20031;-76
2022/07/04 02:07:52;;;;;;;14.15;7.43;;;17.00;99.90;;;;;;4977098;28;20026;-78
2022/07/04 02:10:18;;;;;;;15.75;8.45;;;17.00;99.90;;;;;;4993895;28;20038;-76
2022/07/04 02:13:02;;;;;;;11.18;8.40;;;16.90;99.90;;;;;;4992888;28;20031;-78
2022/07/04 02:15:29;;;;;;;11.30;7.60;;;17.00;99.90;;;;;;4977244;28;20101;-76
2022/07/04 02:17:56;;;;;;;12.20;8.25;;;17.00;99.90;;;;;;4969825;28;20036;-76
2022/07/04 02:20:24;;;;;;;13.20;7.93;;;16.90;99.90;;;;;;4975484;28;20166;-75
2022/07/04 02:22:49;;;;;;;12.40;8.13;;;16.90;99.90;;;;;;4980568;28;20081;-77
2022/07/04 02:25:15;;;;;;;12.25;9.13;;;16.90;99.90;;;;;;4980434;28;20482;-77
2022/07/04 02:27:41;;;;;;;12.00;8.48;;;16.90;99.90;;;;;;4990287;28;20041;-77
2022/07/04 02:30:08;;;;;;;11.32;7.45;;;16.90;99.90;;;;;;4994264;28;20031;-77
2022/07/04 02:32:34;;;;;;;13.63;8.65;;;16.90;99.90;;;;;;4992315;28;20112;-76
2022/07/04 02:35:00;;;;;;;10.50;8.02;;;16.90;99.90;;;;;;4988569;28;20546;-79
2022/07/04 02:37:26;;;;;;;12.00;8.23;;;16.80;99.90;;;;;;4999636;28;20088;-77
2022/07/04 02:39:51;;;;;;;17.77;7.60;;;16.80;99.90;;;;;;4999182;28;20053;-77
2022/07/04 02:42:17;;;;;;;11.52;7.22;;;16.80;99.90;;;;;;4983899;28;20035;-77
2022/07/04 02:44:44;;;;;;;11.75;7.10;;;16.70;99.90;;;;;;4979755;28;20612;-78
2022/07/04 02:47:09;;;;;;;8.90;6.68;;;16.80;99.90;;;;;;4981652;28;20060;-77
2022/07/04 02:49:35;;;;;;;9.77;6.93;;;16.70;99.90;;;;;;4999928;28;20414;-77
2022/07/04 02:52:01;;;;;;;10.07;6.45;;;16.70;99.90;;;;;;4962093;28;20034;-77
2022/07/04 02:54:26;;;;;;;11.15;6.55;;;16.70;99.90;;;;;;4983330;28;20022;-78
2022/07/04 02:56:52;;;;;;;9.82;6.78;;;16.70;99.90;;;;;;4983733;28;20026;-77
2022/07/04 02:59:18;;;;;;;16.88;7.20;;;16.80;99.90;;;;;;4967799;28;20123;-76
2022/07/04 03:01:43;;;;;;;11.35;5.78;;;16.70;99.90;;;;;;4974993;28;20030;-77
2022/07/04 03:04:09;;;;;;;12.68;6.50;;;16.70;99.90;;;;;;4977513;28;20026;-76
2022/07/04 03:06:35;;;;;;;9.18;6.03;;;16.70;99.90;;;;;;4989487;28;20057;-77
2022/07/04 03:09:00;;;;;;;8.68;6.47;;;16.60;99.90;;;;;;4979322;28;20061;-77
2022/07/04 03:11:26;;;;;;;8.30;6.55;;;16.60;99.90;;;;;;4975284;28;20534;-77
2022/07/04 03:13:52;;;;;;;11.48;6.78;;;16.60;99.90;;;;;;4956388;28;20097;-76
2022/07/04 03:16:17;;;;;;;11.15;7.43;;;16.60;99.90;;;;;;4975932;28;20023;-77
2022/07/04 03:18:43;;;;;;;10.23;7.82;;;16.70;99.90;;;;;;4993010;28;20026;-77
2022/07/04 03:21:09;;;;;;;9.98;7.68;;;16.60;99.90;;;;;;4991861;28;20062;-77
2022/07/04 03:23:34;;;;;;;13.57;7.85;;;16.60;99.90;;;;;;4974338;28;20045;-76
2022/07/04 03:26:01;;;;;;;11.25;7.32;;;16.70;99.90;;;;;;4974549;28;20030;-77
2022/07/04 03:28:27;;;;;;;13.10;9.30;;;16.70;99.90;;;;;;4991569;28;20037;-77
2022/07/04 03:30:53;;;;;;;14.20;9.38;;;16.70;99.90;;;;;;4975510;28;20561;-77
2022/07/04 03:33:18;;;;;;;13.20;9.35;;;16.70;99.90;;;;;;4975271;28;20027;-77
2022/07/04 03:35:45;;;;;;;12.93;9.65;;;16.70;99.90;;;;;;4979781;28;20038;-78
2022/07/04 03:38:12;;;;;;;13.70;10.18;;;16.60;99.90;;;;;;4975148;28;20034;-78
2022/07/04 03:40:38;;;;;;;14.13;10.00;;;16.60;99.90;;;;;;4982789;28;20153;-77
2022/07/04 03:43:08;;;;;;;16.55;10.55;;;16.60;99.90;;;;;;4996669;28;20526;-77
2022/07/04 03:45:34;;;;;;;15.82;10.20;;;16.60;99.90;;;;;;4978260;28;20548;-77
2022/07/04 03:48:02;;;;;;;14.02;10.80;;;16.60;99.90;;;;;;4979077;28;20023;-78
2022/07/04 03:50:28;;;;;;;14.73;11.75;;;16.60;99.90;;;;;;4981768;28;20039;-77
2022/07/04 03:52:53;;;;;;;16.13;11.43;;;16.60;99.90;;;;;;4997098;28;20439;-78
2022/07/04 03:55:19;;;;;;;14.70;10.82;;;16.60;99.90;;;;;;4975861;28;20584;-79
2022/07/04 03:57:45;;;;;;;15.60;11.93;;;16.70;99.90;;;;;;4981506;28;20030;-76
2022/07/04 04:00:11;;;;;;;16.73;10.75;;;16.70;99.90;;;;;;4973122;28;20049;-77
2022/07/04 04:02:37;;;;;;;14.77;10.68;;;16.70;99.90;;;;;;4966318;28;20038;-77
2022/07/04 04:07:48;;;;;;;15.57;10.15;;;16.70;99.90;;;;;;4980123;28;20106;-77
2022/07/04 04:10:14;;;;;;;14.68;10.52;;;16.70;99.90;;;;;;4998675;28;20031;-78
2022/07/04 04:12:40;;;;;;;14.32;10.38;;;16.80;99.90;;;;;;4978499;28;20050;-77
2022/07/04 04:15:06;;;;;;;13.57;10.63;;;16.70;99.90;;;;;;4980991;28;20026;-77
2022/07/04 04:17:32;;;;;;;14.98;10.05;;;16.70;99.90;;;;;;4980225;28;20053;-78
2022/07/04 04:19:57;;;;;;;13.23;10.63;;;16.80;99.90;;;;;;4985466;28;20027;-77
2022/07/04 04:22:23;;;;;;;13.40;9.30;;;16.80;99.90;;;;;;4987436;28;20117;-77
2022/07/04 04:24:49;;;;;;;12.95;9.35;;;16.80;99.90;;;;;;4993208;28;20045;-78
2022/07/04 04:27:14;;;;;;;14.18;10.05;;;16.80;99.90;;;;;;4995385;28;20026;-78
2022/07/04 04:29:40;;;;;;;6.80;4.40;;;16.80;99.90;;;;;;4978440;28;20123;-77
2022/07/04 04:32:06;;;;;;;11.77;7.72;;;17.30;99.90;;;;;;4976354;28;20077;-78
2022/07/04 04:34:33;;;;;;;9.38;7.43;;;17.40;99.90;;;;;;4974673;28;20089;-76
2022/07/04 04:37:00;;;;;;;11.40;8.15;;;17.40;99.90;;;;;;4978057;28;20030;-77
2022/07/04 04:39:26;;;;;;;10.00;7.95;;;17.30;99.90;;;;;;4977345;28;20440;-77
2022/07/04 04:41:52;;;;;;;11.73;8.25;;;17.10;99.90;;;;;;4980335;28;20058;-77
2022/07/04 04:44:19;;;;;;;10.65;8.13;;;17.10;99.90;;;;;;4983485;28;20474;-77
2022/07/04 04:46:45;;;;;;;12.32;7.53;;;17.10;99.90;;;;;;4981166;28;20030;-77
2022/07/04 04:49:11;;;;;;;9.52;7.72;;;17.10;99.90;;;;;;4982528;28;20023;-77
2022/07/04 04:51:38;;;;;;;13.13;7.63;;;17.10;99.90;;;;;;5007846;28;20038;-77
2022/07/04 04:54:04;;;;;;;11.93;7.25;;;17.10;99.90;;;;;;4993121;28;20030;-77
2022/07/04 04:56:29;;;;;;;13.65;7.75;;;17.10;99.90;;;;;;4995724;28;20030;-76
2022/07/04 04:58:55;;;;;;;9.27;6.88;;;17.10;99.90;;;;;;4986719;28;20062;-78
2022/07/04 05:01:21;;;;;;;12.60;6.45;;;17.20;99.90;;;;;;4985225;28;20034;-77
2022/07/04 05:03:46;;;;;;;9.43;5.85;;;17.10;99.90;;;;;;4982509;28;20480;-77
2022/07/04 05:06:12;;;;;;;11.68;6.50;;;17.10;99.90;;;;;;4983197;28;20030;-78
2022/07/04 05:08:38;;;;;;;13.05;6.20;;;17.10;99.90;;;;;;4983755;28;20030;-81
2022/07/04 05:11:04;;;;;;;9.23;6.20;;;17.10;99.90;;;;;;4997041;28;20035;-80
2022/07/04 05:13:29;;;;;;;8.38;5.57;;;17.10;99.90;;;;;;4981815;28;20057;-79
2022/07/04 05:15:55;;;;;;;8.75;5.05;;;17.10;99.90;;;;;;4983074;28;20114;-80
2022/07/04 05:18:21;;;;;;;7.80;4.80;;;17.10;99.90;;;;;;4983720;28;20019;-78
2022/07/04 05:20:47;;;;;;;10.15;5.22;;;17.20;99.90;;;;;;4995933;28;20498;-77
2022/07/04 05:23:12;;;;;;;7.25;4.65;;;17.20;99.90;;;;;;4980967;28;20027;-78
2022/07/04 05:25:38;;;;;;;9.32;4.50;;;17.30;99.90;;;;;;4982019;28;20035;-78
2022/07/04 05:28:05;;;;;;;9.23;4.68;;;17.30;99.90;;;;;;4979088;28;20031;-77
2022/07/04 05:30:31;;;;;;;6.57;4.07;;;17.30;99.90;;;;;;4985844;28;20077;-77
2022/07/04 05:32:58;;;;;;;8.07;4.00;;;17.30;99.90;;;;;;4966404;28;20031;-78
2022/07/04 05:35:24;;;;;;;6.85;3.40;;;17.30;99.90;;;;;;4981805;28;20093;-76
2022/07/04 05:37:50;;;;;;;8.38;3.42;;;17.30;99.90;;;;;;5010106;28;20088;-77
2022/07/04 05:40:16;;;;;;;5.28;3.35;;;17.30;99.90;;;;;;5007940;28;20305;-76
2022/07/04 05:42:41;;;;;;;9.68;3.70;;;17.30;99.90;;;;;;4970331;28;20056;-78
2022/07/04 05:45:07;;;;;;;6.97;3.67;;;17.30;99.90;;;;;;4973188;28;20265;-78
2022/07/04 05:47:33;;;;;;;6.25;3.15;;;17.30;99.90;;;;;;4983542;28;20039;-79
2022/07/04 05:50:00;;;;;;;6.70;3.03;;;17.30;99.90;;;;;;4974388;28;20039;-78
2022/07/04 05:52:26;;;;;;;8.10;2.92;;;17.40;99.90;;;;;;4980624;28;20023;-78
2022/07/04 05:54:52;;;;;;;6.97;3.70;;;17.40;99.90;;;;;;4980596;28;20158;-78
2022/07/04 05:57:17;;;;;;;7.05;2.60;;;17.40;99.90;;;;;;4980119;28;20058;-77
2022/07/04 05:59:44;;;;;;;9.57;2.58;;;17.50;99.90;;;;;;4977445;28;20368;-78
2022/07/04 06:02:10;;;;;;;8.13;2.88;;;17.50;99.90;;;;;;4979522;28;20494;-78
2022/07/04 06:04:36;;;;;;;5.40;3.47;;;17.60;99.90;;;;;;4985296;28;20034;-78
2022/07/04 06:07:02;;;;;;;5.82;2.60;;;17.60;99.90;;;;;;4984501;28;20038;-78
2022/07/04 06:09:28;;;;;;;7.15;2.08;;;17.60;99.90;;;;;;4986142;28;20198;-77
2022/07/04 06:11:54;;;;;;;6.32;2.10;;;17.70;99.90;;;;;;4966159;28;20038;-77
2022/07/04 06:14:20;;;;;;;4.78;2.28;;;17.80;99.90;;;;;;4984222;28;20022;-77
2022/07/04 06:16:45;;;;;;;4.40;1.67;;;17.90;99.90;;;;;;4972621;28;20027;-77
2022/07/04 06:19:11;;;;;;;6.43;2.05;;;17.80;99.90;;;;;;4978150;28;20113;-75
2022/07/04 06:21:37;;;;;;;4.57;1.52;;;17.90;99.90;;;;;;4985962;28;20627;-81
2022/07/04 06:24:04;;;;;;;4.50;1.83;;;17.90;99.90;;;;;;4978367;28;20050;-78
2022/07/04 06:26:30;;;;;;;6.10;2.22;;;18.00;99.90;;;;;;4995834;28;20023;-80
2022/07/04 06:28:57;;;;;;;4.03;1.63;;;18.10;99.90;;;;;;4978162;28;20045;-76
2022/07/04 06:31:22;;;;;;;9.02;2.42;;;18.10;99.90;;;;;;4993554;28;20030;-76
2022/07/04 06:36:33;;;;;;;5.57;2.25;;;18.00;99.90;;;;;;4971614;28;20041;-74
2022/07/04 06:38:59;;;;;;;5.22;2.53;;;18.00;99.90;;;;;;4980899;28;20031;-77
2022/07/04 06:41:25;;;;;;;5.25;1.65;;;18.10;99.90;;;;;;4981266;28;20038;-78
2022/07/04 06:43:51;;;;;;;4.68;1.75;;;18.20;99.90;;;;;;4963372;28;20094;-81
2022/07/04 06:46:16;;;;;;;6.20;2.25;;;18.30;99.90;;;;;;4971311;28;20050;-79
2022/07/04 06:48:43;;;;;;;7.03;1.90;;;18.30;99.90;;;;;;4984984;28;20441;-78
2022/07/04 06:51:08;;;;;;;8.90;1.73;;;18.40;99.90;;;;;;4971593;28;20026;-79
2022/07/04 06:53:34;;;;;;;6.20;1.83;;;18.50;99.90;;;;;;4984262;28;20383;-79
2022/07/04 06:56:00;;;;;;;4.95;2.03;;;18.60;99.90;;;;;;4983110;28;20029;-78
2022/07/04 06:58:26;;;;;;;3.85;1.92;;;18.60;99.90;;;;;;4977988;28;20031;-78
2022/07/04 07:00:52;;;;;;;4.00;1.83;;;18.60;99.90;;;;;;4981326;28;20061;-78
2022/07/04 07:03:17;;;;;;;3.58;1.75;;;18.70;99.90;;;;;;4999167;28;20022;-77
2022/07/04 07:05:43;;;;;;;11.93;2.60;;;18.70;99.90;;;;;;5006518;28;20034;-78
2022/07/04 07:08:09;;;;;;;6.15;2.22;;;19.00;99.90;;;;;;4983093;28;20046;-79
2022/07/04 07:10:37;;;;;;;5.82;2.00;;;19.30;99.90;;;;;;4984734;28;20035;-79
2022/07/04 07:13:03;;;;;;;6.10;1.35;;;19.60;99.90;;;;;;4990522;28;20378;-78
2022/07/04 07:15:31;;;;;;;5.47;2.00;;;19.60;99.90;;;;;;4979983;28;20026;-79
2022/07/04 07:17:56;;;;;;;4.50;1.40;;;19.70;99.90;;;;;;4982542;28;20101;-78
2022/07/04 07:20:22;;;;;;;3.88;1.30;;;19.60;99.90;;;;;;4979489;28;20117;-79
2022/07/04 07:22:48;;;;;;;4.10;1.30;;;19.40;99.90;;;;;;4993992;28;20030;-78
2022/07/04 07:25:13;;;;;;;5.15;1.30;;;19.40;99.90;;;;;;4983755;28;20113;-78
2022/07/04 07:27:41;;;;;;;5.90;1.85;;;19.20;99.90;;;;;;4986628;28;20090;-79
2022/07/04 07:30:07;;;;;;;3.58;1.45;;;19.20;99.90;;;;;;4980174;28;20027;-78
2022/07/04 07:32:33;;;;;;;2.33;1.13;;;19.20;99.90;;;;;;4983822;28;20042;-79
2022/07/04 07:34:59;;;;;;;3.30;1.23;;;19.40;99.90;;;;;;4980703;28;20038;-78
2022/07/04 07:37:26;;;;;;;3.22;1.25;;;19.30;99.90;;;;;;4981289;28;20050;-78
2022/07/04 07:39:51;;;;;;;3.60;1.20;;;19.20;99.90;;;;;;4977635;28;20515;-78
2022/07/04 07:42:17;;;;;;;5.75;1.60;;;19.00;99.90;;;;;;4998679;28;20022;-79
2022/07/04 07:44:46;;;;;;;5.22;1.10;;;19.00;99.90;;;;;;4984571;28;20105;-79
2022/07/04 07:47:15;;;;;;;3.90;1.77;;;19.00;99.90;;;;;;4982292;28;20033;-79
2022/07/04 07:49:42;;;;;;;3.60;1.13;;;19.00;99.90;;;;;;4980871;28;20041;-77
2022/07/04 07:52:08;;;;;;;4.05;1.42;;;19.10;99.90;;;;;;4980857;28;20380;-80
2022/07/04 07:54:34;;;;;;;4.82;1.70;;;19.20;99.90;;;;;;4965010;28;20026;-79
2022/07/04 07:57:01;;;;;;;5.40;1.40;;;19.30;99.90;;;;;;4988603;28;20019;-80
2022/07/04 07:59:27;;;;;;;5.00;2.00;;;19.30;99.90;;;;;;4995808;28;20027;-78
2022/07/04 08:01:52;;;;;;;6.82;1.38;;;19.30;99.90;;;;;;4983422;28;20023;-78
2022/07/04 08:07:08;;;;;;;4.00;1.20;;;19.50;99.90;;;;;;4982412;28;20030;-78
2022/07/04 08:09:34;;;;;;;;;;;19.50;99.90;;;;;;4966556;28;20138;-79
2022/07/04 08:12:02;;;;;;;5.70;1.10;;;19.60;99.90;;;;;;4988158;28;20341;-78
2022/07/04 08:14:28;;;;;;;5.03;1.20;;;20.00;99.90;;;;;;5004169;28;20043;-79
2022/07/04 08:16:56;;;;;;;3.83;1.33;;;19.70;99.90;;;;;;4987138;28;20029;-78
2022/07/04 08:19:24;;;;;;;3.15;0.90;;;19.50;99.90;;;;;;4980415;28;20027;-79
2022/07/04 08:21:50;;;;;;;5.03;1.20;;;19.40;99.90;;;;;;4985225;28;20035;-79
2022/07/04 08:24:16;;;;;;;3.85;1.30;;;19.60;99.90;;;;;;4997280;28;20027;-78
2022/07/04 08:26:42;;;;;;;5.25;1.50;;;19.70;99.90;;;;;;4979940;28;20030;-78
2022/07/04 08:29:08;;;;;;;7.50;1.15;;;19.80;99.90;;;;;;4994128;28;20134;-79
2022/07/04 08:31:34;;;;;;;3.15;1.02;;;19.80;99.90;;;;;;4979130;28;20675;-78
2022/07/04 08:34:00;;;;;;;4.35;0.88;;;19.70;99.90;;;;;;4997639;28;20078;-78
2022/07/04 08:36:25;;;;;;;3.72;1.02;;;19.70;99.90;;;;;;4979857;28;20043;-78
2022/07/04 08:38:51;;;;;;;3.85;1.20;;;19.70;99.90;;;;;;4981312;28;20109;-78
2022/07/04 08:41:18;;;;;;;2.80;1.02;;;19.80;99.90;;;;;;4966903;28;20033;-78
2022/07/04 08:43:46;;;;;;;3.78;0.90;;;19.90;99.90;;;;;;4962313;28;20035;-77
2022/07/04 08:46:16;;;;;;;2.72;0.88;;;20.00;99.90;;;;;;4995681;28;20067;-78
2022/07/04 08:48:48;;;;;;;4.05;1.20;;;20.00;99.90;;;;;;5000417;28;20031;-79
2022/07/04 08:51:25;;;;;;;3.33;0.80;;;20.10;99.90;;;;;;4985986;28;20038;-78
2022/07/04 08:53:56;;;;;;;5.05;0.90;;;20.20;99.90;;;;;;4974128;28;20045;-77
2022/07/04 08:59:08;;;;;;;5.88;1.00;;;20.30;99.90;;;;;;4986884;28;20023;-77
2022/07/04 09:01:35;;;;;;;4.47;0.85;;;20.30;99.90;;;;;;4991738;28;20495;-78
2022/07/04 09:04:01;;;;;;;4.63;1.00;;;20.30;99.90;;;;;;4991106;28;20033;-79
2022/07/04 09:06:29;;;;;;;4.72;1.00;;;20.30;99.90;;;;;;5000834;28;20026;-78
2022/07/04 09:08:55;;;;;;;3.67;1.45;;;20.30;99.90;;;;;;4972480;28;20490;-77
2022/07/04 09:11:21;;;;;;;5.57;1.02;;;20.30;99.60;;;;;;4994426;28;20027;-78
2022/07/04 09:13:48;;;;;;;2.75;1.13;;;20.40;99.70;;;;;;4967594;28;20060;-78
2022/07/04 09:16:14;;;;;;;2.08;1.10;;;20.50;99.90;;;;;;4974755;28;20031;-78
2022/07/04 09:18:39;;;;;;;3.80;1.15;;;20.60;99.90;;;;;;4979816;28;20039;-78
2022/07/04 09:21:09;;;;;;;2.08;0.80;;;20.60;99.40;;;;;;4977218;28;20077;-78
2022/07/04 09:23:40;;;;;;;2.28;1.00;;;20.60;99.90;;;;;;4986025;28;20038;-77
2022/07/04 09:26:06;;;;;;;2.25;0.70;;;20.60;99.70;;;;;;4944112;28;20037;-76
2022/07/04 09:28:32;;;;;;;3.50;0.90;;;20.60;98.60;;;;;;4965202;28;20102;-76
2022/07/04 09:30:58;;;;;;;2.33;0.90;;;20.60;99.20;;;;;;4957440;28;20108;-77
2022/07/04 09:33:49;;;;;;;3.60;0.90;;;20.50;99.10;;;;;;4952524;28;20113;-76
2022/07/04 09:36:17;;;;;;;3.42;1.00;;;20.60;99.20;;;;;;4961553;28;20066;-77
2022/07/04 09:38:44;;;;;;;27.38;1.65;;;20.60;99.00;;;;;;4954454;28;20039;-77
2022/07/04 09:41:25;;;;;;;1.13;0.60;;;20.60;99.10;;;;;;4961870;28;20039;-78
2022/07/04 09:44:02;;;;;;;1.88;0.90;;;20.70;99.20;;;;;;4973586;28;20030;-77
2022/07/04 09:46:28;;;;;;;1.63;0.70;;;20.80;98.50;;;;;;4982225;28;20027;-78
2022/07/04 09:48:54;;;;;;;5.00;1.10;;;20.90;98.50;;;;;;4982762;28;20066;-77
2022/07/04 09:51:48;;;;;;;2.10;0.70;;;20.90;98.60;;;;;;4983446;28;20037;-77
2022/07/04 09:54:16;;;;;;;2.72;0.77;;;20.90;99.00;;;;;;4975401;28;20043;-78
2022/07/04 09:57:05;;;;;;;1.63;0.82;;;20.80;98.80;;;;;;4966773;28;20118;-78
2022/07/04 09:59:31;;;;;;;3.15;1.20;;;20.80;98.50;;;;;;4953912;28;20049;-78
2022/07/04 10:02:14;;;;;;;2.38;0.93;;;20.90;99.00;;;;;;4983068;28;20049;-77
2022/07/04 10:04:51;;;;;;;1.90;0.80;;;21.00;98.10;;;;;;4977366;28;20082;-77
2022/07/04 10:07:37;;;;;;;2.20;0.68;;;21.10;97.70;;;;;;4979075;28;20023;-76
2022/07/04 10:10:31;;;;;;;2.63;1.10;;;21.10;98.00;;;;;;4979123;28;20033;-77
2022/07/04 10:13:01;;;;;;;3.60;1.15;;;21.20;97.80;;;;;;4980664;28;20053;-77
2022/07/04 10:15:26;;;;;;;1.77;0.85;;;21.10;97.50;;;;;;4978209;28;20096;-78
2022/07/04 10:17:52;;;;;;;4.35;0.80;;;21.00;97.60;;;;;;4982239;28;20427;-77
2022/07/04 10:20:18;;;;;;;9.70;3.10;;;21.10;99.20;;;;;;4976753;28;20031;-77
2022/07/04 10:22:44;;;;;;;41.33;17.20;;;21.30;98.50;;;;;;4971731;28;20049;-76
2022/07/04 10:25:12;;;;;;;22.10;12.75;;;21.40;98.30;;;;;;4977181;28;20026;-78
2022/07/04 10:27:39;;;;;;;7.72;4.90;;;21.50;98.30;;;;;;4961076;28;20130;-75
2022/07/04 10:30:09;;;;;;;8.60;3.45;;;21.50;97.80;;;;;;4959094;28;20026;-75
2022/07/04 10:32:35;;;;;;;5.45;2.30;;;21.70;97.40;;;;;;4972551;28;20533;-77
2022/07/04 10:35:02;;;;;;;3.97;1.83;;;21.70;96.60;;;;;;4975392;28;20042;-75
2022/07/04 10:38:04;;;;;;;4.93;1.30;;;21.70;96.30;;;;;;4977986;28;20026;-73
2022/07/04 10:40:43;;;;;;;1.40;1.00;;;21.60;96.60;;;;;;4976411;28;20031;-73
2022/07/04 10:43:31;;;;;;;2.85;0.80;;;21.50;96.70;;;;;;4972218;28;20328;-77
2022/07/04 10:46:27;;;;;;;4.55;1.13;;;21.50;96.60;;;;;;4976011;28;20057;-77
2022/07/04 10:49:12;;;;;;;3.20;0.73;;;21.60;96.10;;;;;;4981162;28;20030;-77
2022/07/04 10:51:42;;;;;;;273.23;177.98;;;21.50;95.00;;;;;;4980513;28;20027;-77
2022/07/04 10:54:10;;;;;;;404.65;291.42;;;21.60;96.10;;;;;;4996706;28;20117;-77
2022/07/04 10:56:46;;;;;;;368.90;277.33;;;21.60;95.70;;;;;;4985986;28;20035;-77
2022/07/04 10:59:27;;;;;;;4.80;2.58;;;21.70;96.20;;;;;;4988998;28;20027;-77
2022/07/04 11:01:53;;;;;;;;;;;21.80;94.70;;;;;;4982720;28;20023;-77
2022/07/04 11:04:47;;;;;;;2.45;1.27;;;21.80;94.20;;;;;;4968809;28;19925;-77
2022/07/04 11:07:37;;;;;;;2.60;0.70;;;21.80;94.40;;;;;;4971872;28;20026;-76
2022/07/04 11:15:27;;;;;;;1.38;0.73;;;22.10;93.60;;;;;;4972149;28;20024;-77
2022/07/04 11:17:55;;;;;;;2.03;0.80;;;22.10;93.60;;;;;;4974845;28;20061;-76
2022/07/04 11:20:22;;;;;;;3.28;0.80;;;22.00;93.30;;;;;;4975307;28;20095;-76
2022/07/04 11:22:48;;;;;;;3.47;0.63;;;21.70;93.30;;;;;;4993996;28;20033;-76
2022/07/04 11:25:15;;;;;;;3.95;0.90;;;21.50;93.50;;;;;;4959757;28;20031;-77
2022/07/04 11:27:41;;;;;;;2.33;0.70;;;21.40;94.10;;;;;;4967827;28;20518;-78
2022/07/04 11:30:08;;;;;;;5.43;0.90;;;21.30;95.10;;;;;;4976181;28;20471;-79
2022/07/04 11:32:36;;;;;;;3.78;1.00;;;21.30;94.50;;;;;;4983788;28;20094;-78
2022/07/04 11:35:07;;;;;;;2.45;0.93;;;21.30;94.50;;;;;;4995820;28;20029;-78
2022/07/04 11:37:33;;;;;;;1.80;0.73;;;21.40;94.10;;;;;;4968051;28;20031;-75
2022/07/04 11:45:53;;;;;;;4.35;0.80;;;24.40;92.10;;;;;;4980648;28;20045;-77
2022/07/04 11:48:22;;;;;;;3.03;0.70;;;27.40;83.70;;;;;;4977289;28;20019;-76
2022/07/04 11:50:48;;;;;;;2.30;0.85;;;27.80;75.40;;;;;;4978956;28;20098;-76
2022/07/04 11:53:14;;;;;;;1.80;0.88;;;26.90;71.70;;;;;;4996101;28;20545;-75
2022/07/04 11:55:56;;;;;;;4.60;1.00;;;25.90;72.30;;;;;;4984252;28;20041;-77
2022/07/04 11:58:22;;;;;;;1.50;0.85;;;25.70;74.60;;;;;;4977346;28;20026;-76
2022/07/04 12:00:48;;;;;;;2.13;0.68;;;25.80;75.80;;;;;;4980384;28;20030;-76
2022/07/04 12:03:14;;;;;;;3.47;0.90;;;26.80;72.90;;;;;;4993126;28;20035;-77
2022/07/04 12:05:39;;;;;;;3.67;0.70;;;27.20;70.30;;;;;;4995148;28;20474;-77
2022/07/04 12:08:07;;;;;;;2.60;1.00;;;28.00;68.40;;;;;;4979662;28;20057;-77
2022/07/04 12:10:33;;;;;;;1.25;0.70;;;27.50;69.30;;;;;;4995489;28;20034;-77
2022/07/04 12:13:09;;;;;;;2.10;0.70;;;28.30;64.30;;;;;;4961242;28;20027;-77
2022/07/04 12:15:46;;;;;;;2.72;1.00;;;28.20;64.10;;;;;;4976911;28;20043;-76
2022/07/04 12:18:17;;;;;;;1.08;0.65;;;27.20;63.30;;;;;;4978599;28;20022;-76
2022/07/04 12:20:42;;;;;;;1.40;0.65;;;26.80;64.90;;;;;;5001118;28;20027;-77
2022/07/04 12:23:09;;;;;;;1.45;0.90;;;26.10;66.50;;;;;;4984405;28;20460;-78
2022/07/04 12:25:38;;;;;;;1.75;0.70;;;25.40;67.10;;;;;;4986042;28;20031;-77
2022/07/04 12:28:11;;;;;;;3.15;0.95;;;24.80;68.30;;;;;;4982745;28;20032;-77
2022/07/04 12:30:58;;;;;;;4.88;0.75;;;24.30;67.70;;;;;;4998739;28;20026;-78
2022/07/04 12:33:26;;;;;;;4.75;1.20;;;24.10;69.20;;;;;;4996726;28;20027;-76
2022/07/04 12:35:56;;;;;;;2.15;0.80;;;23.80;70.40;;;;;;4984703;28;20019;-77
2022/07/04 12:38:35;;;;;;;2.80;1.00;;;23.50;71.30;;;;;;4997947;28;20042;-78
2022/07/04 12:41:03;;;;;;;5.60;1.30;;;23.60;72.10;;;;;;4983394;28;20035;-77
2022/07/04 12:43:41;;;;;;;3.83;1.00;;;23.90;71.70;;;;;;4979747;28;20023;-77
2022/07/04 12:46:08;;;;;;;5.35;1.55;;;24.90;70.60;;;;;;4986294;28;20037;-77
2022/07/04 12:48:34;;;;;;;4.35;1.40;;;26.00;68.80;;;;;;4981943;28;20489;-78
2022/07/04 12:51:19;;;;;;;4.25;0.90;;;27.10;67.40;;;;;;4998989;28;20042;-77
2022/07/04 12:53:47;;;;;;;4.70;1.00;;;27.60;62.40;;;;;;4979369;28;20042;-76
2022/07/04 12:56:31;;;;;;;2.40;1.17;;;27.40;63.40;;;;;;4979434;28;20085;-77
2022/07/04 12:58:58;;;;;;;6.05;0.93;;;26.90;63.50;;;;;;4980477;28;20033;-76
2022/07/04 13:01:23;;;;;;;2.35;0.82;;;27.20;63.40;;;;;;4979914;28;20114;-76
2022/07/04 13:03:49;;;;;;;3.92;0.82;;;27.70;61.20;;;;;;4959461;28;20554;-77
2022/07/04 13:06:15;;;;;;;3.58;0.85;;;27.20;61.80;;;;;;4975954;28;20050;-77
2022/07/04 13:08:41;;;;;;;3.75;0.90;;;26.80;62.60;;;;;;4994746;28;20023;-77
2022/07/04 13:13:51;;;;;;;2.92;0.80;;;25.90;62.80;;;;;;4979508;28;20026;-77